Time;durP1;ratioP1;P1;durP2;ratioP2;P2;SDS_P1;SDS_P2;PMS_P1;PMS_P2;Temp;Humidity;BMP_temperature;BMP_pressure;BME280_temperature;BME280_humidity;BME280_pressure;Samples;Min_cycle;Max_cycle;Signal;HPM_P1;HPM_P2
2022/10/07 00:01:36;;;;;;;13.43;2.05;;;10.50;99.90;;;;;;5075751;28;20036;-72
2022/10/07 00:04:02;;;;;;;17.38;2.20;;;10.50;99.90;;;;;;5066705;28;20640;-71
2022/10/07 00:06:28;;;;;;;15.30;2.20;;;10.50;99.90;;;;;;5076160;28;20041;-71
2022/10/07 00:08:54;;;;;;;18.45;2.45;;;10.40;99.90;;;;;;5074772;28;20133;-71
2022/10/07 00:11:27;;;;;;;12.52;2.65;;;10.40;99.90;;;;;;5075989;28;20040;-71
2022/10/07 00:13:56;;;;;;;10.27;2.38;;;10.50;99.90;;;;;;5071163;28;20048;-71
2022/10/07 00:16:28;;;;;;;10.05;2.60;;;10.40;99.90;;;;;;5076609;28;20055;-71
2022/10/07 00:18:57;;;;;;;12.40;2.60;;;10.40;99.90;;;;;;5073735;28;20040;-71
2022/10/07 00:21:25;;;;;;;14.85;2.38;;;10.40;99.90;;;;;;5054534;28;20044;-71
2022/10/07 00:23:51;;;;;;;10.93;2.50;;;10.40;99.90;;;;;;5074862;28;20138;-71
2022/10/07 00:26:20;;;;;;;9.63;2.20;;;10.40;99.90;;;;;;5070361;28;20032;-71
2022/10/07 00:28:47;;;;;;;12.52;2.50;;;10.30;99.90;;;;;;5068258;28;20058;-72
2022/10/07 00:31:19;;;;;;;13.48;2.35;;;10.30;99.90;;;;;;5059463;28;20159;-71
2022/10/07 00:33:45;;;;;;;9.60;1.88;;;10.50;99.90;;;;;;5054352;28;20390;-71
2022/10/07 00:36:13;;;;;;;17.15;2.60;;;10.30;99.90;;;;;;5078662;28;20386;-71
2022/10/07 00:38:39;;;;;;;13.93;2.47;;;10.40;99.90;;;;;;5042290;28;20533;-72
2022/10/07 00:41:07;;;;;;;11.88;2.10;;;10.30;99.90;;;;;;5063996;28;20085;-71
2022/10/07 00:43:33;;;;;;;12.57;2.03;;;10.20;99.90;;;;;;5066262;28;20577;-71
2022/10/07 00:46:21;;;;;;;11.48;2.17;;;10.20;99.90;;;;;;5057282;28;20044;-72
2022/10/07 00:48:47;;;;;;;17.02;2.88;;;10.20;99.90;;;;;;5061642;28;20052;-71
2022/10/07 00:51:15;;;;;;;12.95;2.40;;;10.20;99.90;;;;;;5060735;28;20562;-72
2022/10/07 00:53:45;;;;;;;13.95;2.20;;;10.60;99.90;;;;;;5066241;28;20036;-72
2022/10/07 00:56:12;;;;;;;15.13;2.50;;;10.20;99.90;;;;;;5049028;28;20040;-72
2022/10/07 00:58:41;;;;;;;14.45;2.30;;;10.20;99.90;;;;;;5066208;28;20060;-72
2022/10/07 01:01:07;;;;;;;13.00;2.83;;;10.20;99.90;;;;;;5069536;28;20072;-72
2022/10/07 01:03:36;;;;;;;17.73;2.80;;;10.20;99.90;;;;;;5069390;28;20461;-67
2022/10/07 01:06:03;;;;;;;10.45;2.13;;;10.40;99.90;;;;;;5064705;28;20446;-67
2022/10/07 01:08:29;;;;;;;16.83;2.97;;;10.10;99.90;;;;;;5066120;28;20794;-67
2022/10/07 01:11:29;;;;;;;14.98;2.50;;;10.10;99.90;;;;;;5062943;28;20052;-67
2022/10/07 01:14:32;;;;;;;16.23;2.58;;;10.10;99.90;;;;;;5034372;28;20421;-68
2022/10/07 01:17:14;;;;;;;12.20;2.60;;;10.10;99.90;;;;;;5058279;28;20054;-67
2022/10/07 01:20:05;;;;;;;18.38;2.42;;;10.00;99.90;;;;;;5052736;28;20060;-68
2022/10/07 01:22:35;;;;;;;13.85;1.95;;;10.00;99.90;;;;;;5047478;28;20124;-67
2022/10/07 01:25:08;;;;;;;14.30;2.85;;;10.00;99.90;;;;;;5075471;28;20052;-67
2022/10/07 01:27:35;;;;;;;11.95;2.42;;;10.00;99.90;;;;;;5051501;28;20044;-67
2022/10/07 01:30:06;;;;;;;15.77;2.50;;;10.00;99.90;;;;;;5066512;28;20040;-68
2022/10/07 01:32:40;;;;;;;;;;;10.00;99.90;;;;;;5068673;28;20040;-68
2022/10/07 01:35:11;;;;;;;11.55;2.40;;;10.00;99.90;;;;;;5064947;28;19935;-67
2022/10/07 01:37:42;;;;;;;10.52;3.05;;;10.00;99.90;;;;;;5070797;28;21379;-67
2022/10/07 01:40:25;;;;;;;11.27;2.50;;;9.90;99.90;;;;;;5074162;28;20044;-68
2022/10/07 01:42:52;;;;;;;10.80;2.30;;;9.90;99.90;;;;;;5070590;28;20508;-68
2022/10/07 01:45:20;;;;;;;12.63;2.63;;;10.20;99.90;;;;;;5058716;28;20056;-68
2022/10/07 01:47:50;;;;;;;10.80;2.85;;;10.00;99.90;;;;;;5069810;28;20040;-68
2022/10/07 01:50:21;;;;;;;18.48;2.80;;;10.00;99.90;;;;;;5065243;28;20041;-72
2022/10/07 01:52:54;;;;;;;14.07;2.28;;;9.90;99.90;;;;;;5076120;28;20659;-68
2022/10/07 01:55:28;;;;;;;14.63;3.05;;;9.90;99.90;;;;;;5073482;28;20049;-68
2022/10/07 01:58:32;;;;;;;17.13;2.85;;;9.90;99.90;;;;;;5071968;28;20052;-72
2022/10/07 02:01:21;;;;;;;10.65;2.75;;;9.90;99.90;;;;;;5084813;28;20047;-67
2022/10/07 02:04:13;;;;;;;17.90;3.65;;;9.90;99.90;;;;;;5066496;28;20055;-67
2022/10/07 02:06:56;;;;;;;12.98;2.95;;;9.90;99.90;;;;;;5053831;28;20064;-67
2022/10/07 02:09:43;;;;;;;15.25;2.90;;;9.90;99.90;;;;;;5082705;28;20049;-67
2022/10/07 02:12:43;;;;;;;12.57;2.67;;;9.90;99.90;;;;;;5057851;28;20137;-67
2022/10/07 02:15:18;;;;;;;12.80;2.45;;;9.90;99.90;;;;;;5077308;28;20105;-67
2022/10/07 02:17:58;;;;;;;11.88;2.90;;;9.90;99.90;;;;;;5086120;28;20734;-67
2022/10/07 02:20:27;;;;;;;14.15;2.63;;;9.90;99.90;;;;;;5078396;28;20396;-67
2022/10/07 02:22:57;;;;;;;8.38;2.47;;;10.10;99.90;;;;;;5077742;28;20090;-68
2022/10/07 02:25:26;;;;;;;15.35;3.13;;;9.80;99.90;;;;;;5078416;28;20122;-67
2022/10/07 02:27:53;;;;;;;9.93;2.25;;;9.80;99.90;;;;;;5080739;28;20400;-67
2022/10/07 02:30:21;;;;;;;17.13;3.15;;;10.00;99.90;;;;;;5072685;28;20565;-67
2022/10/07 02:32:53;;;;;;;15.52;3.28;;;9.90;99.90;;;;;;5061269;28;20127;-67
2022/10/07 02:35:35;;;;;;;16.10;2.53;;;9.80;99.90;;;;;;5079138;28;20082;-67
2022/10/07 02:38:06;;;;;;;13.30;3.00;;;9.80;99.90;;;;;;5077287;28;20054;-67
2022/10/07 02:40:36;;;;;;;12.63;3.00;;;10.20;99.90;;;;;;5079509;28;20446;-68
2022/10/07 02:43:27;;;;;;;9.00;2.95;;;9.80;99.90;;;;;;5075256;28;20301;-67
2022/10/07 02:46:29;;;;;;;13.68;3.03;;;9.80;99.90;;;;;;5077008;28;20052;-67
2022/10/07 02:48:59;;;;;;;14.48;3.13;;;9.70;99.90;;;;;;5077063;28;20386;-68
2022/10/07 02:51:32;;;;;;;18.27;3.67;;;9.70;99.90;;;;;;5079132;28;20051;-67
2022/10/07 02:54:01;;;;;;;15.73;3.00;;;9.70;99.90;;;;;;5075600;28;20040;-68
2022/10/07 02:56:29;;;;;;;19.02;3.33;;;9.70;99.90;;;;;;5070126;28;20076;-68
2022/10/07 02:58:55;;;;;;;20.25;3.88;;;9.70;99.90;;;;;;5070455;28;20043;-68
2022/10/07 03:01:28;;;;;;;16.38;3.28;;;9.70;99.90;;;;;;5065043;28;20128;-67
2022/10/07 03:03:56;;;;;;;17.30;3.42;;;9.80;99.90;;;;;;5063529;28;20119;-67
2022/10/07 03:06:23;;;;;;;14.93;3.08;;;9.70;99.90;;;;;;5075778;28;20056;-68
2022/10/07 03:08:50;;;;;;;13.52;3.08;;;9.70;99.90;;;;;;5079118;28;20119;-67
2022/10/07 03:11:15;;;;;;;18.27;3.17;;;9.60;99.90;;;;;;5066091;28;20047;-68
2022/10/07 03:13:41;;;;;;;18.55;2.97;;;9.60;99.90;;;;;;5071999;28;20048;-67
2022/10/07 03:16:08;;;;;;;28.77;4.60;;;9.60;99.90;;;;;;5065155;28;20075;-67
2022/10/07 03:18:34;;;;;;;18.40;3.38;;;9.60;99.90;;;;;;5078929;28;20505;-67
2022/10/07 03:20:59;;;;;;;15.32;3.60;;;9.50;99.90;;;;;;5064104;28;20508;-67
2022/10/07 03:23:30;;;;;;;16.25;3.78;;;9.50;99.90;;;;;;5078075;28;20042;-67
2022/10/07 03:25:58;;;;;;;15.23;2.87;;;9.70;99.90;;;;;;5083806;28;20570;-67
2022/10/07 03:28:26;;;;;;;17.10;2.92;;;9.50;99.90;;;;;;5060254;28;20488;-67
2022/10/07 03:30:52;;;;;;;16.02;3.00;;;9.50;99.90;;;;;;5069982;28;20058;-67
2022/10/07 03:33:23;;;;;;;16.50;3.38;;;9.50;99.90;;;;;;5082641;28;20055;-67
2022/10/07 03:35:48;;;;;;;14.13;2.92;;;9.50;99.90;;;;;;5073583;28;20066;-67
2022/10/07 03:38:14;;;;;;;16.35;3.08;;;9.50;99.90;;;;;;5060181;28;20044;-67
2022/10/07 03:40:43;;;;;;;18.77;3.22;;;9.40;99.90;;;;;;5077145;28;20052;-67
2022/10/07 03:43:08;;;;;;;19.58;3.05;;;9.50;99.90;;;;;;5079973;28;20416;-67
2022/10/07 03:45:36;;;;;;;15.70;3.65;;;9.40;99.90;;;;;;5063622;28;20047;-67
2022/10/07 03:48:02;;;;;;;14.35;3.17;;;9.40;99.90;;;;;;5060708;28;20046;-67
2022/10/07 03:50:28;;;;;;;20.73;3.67;;;9.50;99.90;;;;;;5069870;28;20044;-67
2022/10/07 03:52:55;;;;;;;23.95;3.83;;;9.40;99.90;;;;;;5079127;28;21576;-67
2022/10/07 03:55:20;;;;;;;14.15;3.53;;;9.40;99.90;;;;;;5056649;28;20046;-67
2022/10/07 03:57:49;;;;;;;14.52;3.20;;;9.30;99.90;;;;;;5079559;28;20554;-67
2022/10/07 04:00:19;;;;;;;12.48;3.00;;;9.30;99.90;;;;;;5075468;28;20104;-67
2022/10/07 04:02:49;;;;;;;20.07;3.43;;;9.30;99.90;;;;;;5078346;28;20040;-67
2022/10/07 04:05:20;;;;;;;13.23;3.72;;;9.30;99.90;;;;;;5076596;28;20048;-67
2022/10/07 04:07:47;;;;;;;18.95;3.92;;;9.30;99.90;;;;;;5072035;28;20127;-68
2022/10/07 04:10:15;;;;;;;12.55;3.33;;;9.30;99.90;;;;;;5075321;28;20040;-68
2022/10/07 04:12:46;;;;;;;20.70;3.58;;;9.30;99.90;;;;;;5094617;28;20548;-72
2022/10/07 04:15:12;;;;;;;20.17;4.10;;;9.30;99.90;;;;;;5070495;28;20040;-67
2022/10/07 04:17:43;;;;;;;15.60;3.33;;;9.30;99.90;;;;;;5073648;28;20082;-67
2022/10/07 04:20:11;;;;;;;16.23;3.17;;;9.30;99.90;;;;;;5072044;28;20599;-72
2022/10/07 04:22:37;;;;;;;13.88;3.65;;;9.50;99.90;;;;;;5056615;28;20534;-72
2022/10/07 04:27:52;;;;;;;19.27;4.47;;;9.30;99.90;;;;;;5065796;28;20097;-67
2022/10/07 04:30:20;;;;;;;13.85;3.70;;;9.30;99.90;;;;;;5068399;28;20047;-67
2022/10/07 04:32:48;;;;;;;15.38;4.03;;;9.20;99.90;;;;;;5058094;28;20048;-67
2022/10/07 04:35:14;;;;;;;18.50;3.90;;;9.30;99.90;;;;;;5073738;28;20110;-67
2022/10/07 04:37:40;;;;;;;18.70;3.78;;;9.20;99.90;;;;;;5043859;28;20112;-67
2022/10/07 04:40:09;;;;;;;15.77;3.80;;;9.20;99.90;;;;;;5048113;28;20574;-67
2022/10/07 04:45:19;;;;;;;22.45;4.25;;;9.30;99.90;;;;;;5069895;28;20416;-67
2022/10/07 04:47:45;;;;;;;22.13;4.75;;;9.40;99.90;;;;;;5057601;28;20283;-67
2022/10/07 04:50:12;;;;;;;14.68;3.83;;;9.30;99.90;;;;;;5063649;28;20602;-66
2022/10/07 04:52:41;;;;;;;16.60;3.90;;;9.20;99.90;;;;;;5064523;28;20076;-68
2022/10/07 04:55:13;;;;;;;17.92;4.63;;;9.20;99.90;;;;;;5083403;28;20052;-67
2022/10/07 04:57:39;;;;;;;;;;;9.20;99.90;;;;;;5054796;28;20440;-67
2022/10/07 05:00:05;;;;;;;15.27;4.30;;;9.30;99.90;;;;;;5074609;28;19972;-67
2022/10/07 05:02:31;;;;;;;26.17;4.50;;;9.20;99.90;;;;;;5057503;28;20549;-68
2022/10/07 05:04:57;;;;;;;17.90;3.60;;;9.20;99.90;;;;;;5054933;28;20068;-67
2022/10/07 05:07:22;;;;;;;20.95;5.28;;;9.30;99.90;;;;;;5057146;28;20045;-67
2022/10/07 05:09:48;;;;;;;20.60;4.30;;;9.30;99.90;;;;;;5065560;28;20059;-67
2022/10/07 05:12:16;;;;;;;24.60;4.47;;;9.50;99.90;;;;;;5036987;28;20053;-67
2022/10/07 05:14:42;;;;;;;18.38;4.57;;;9.30;99.90;;;;;;5068650;28;20470;-67
2022/10/07 05:17:08;;;;;;;22.20;4.28;;;9.30;99.90;;;;;;5064312;28;20505;-67
2022/10/07 05:19:34;;;;;;;20.10;4.60;;;9.30;99.90;;;;;;5053869;28;20039;-67
2022/10/07 05:22:01;;;;;;;27.15;5.30;;;9.30;99.90;;;;;;5053184;28;20105;-67
2022/10/07 05:24:28;;;;;;;20.52;4.47;;;9.30;99.90;;;;;;5045854;28;20045;-67
2022/10/07 05:26:53;;;;;;;18.38;4.18;;;9.30;99.90;;;;;;5054953;28;20136;-67
2022/10/07 05:29:20;;;;;;;25.20;5.15;;;9.30;99.90;;;;;;5045652;28;20187;-67
2022/10/07 05:31:47;;;;;;;25.13;4.95;;;9.30;99.90;;;;;;5037597;28;20055;-67
2022/10/07 05:34:14;;;;;;;15.00;3.95;;;9.30;99.90;;;;;;5065028;28;20094;-67
2022/10/07 05:36:41;;;;;;;17.67;5.07;;;9.30;99.90;;;;;;5034554;28;20689;-67
2022/10/07 05:39:10;;;;;;;24.50;4.60;;;9.40;99.90;;;;;;5030701;28;20429;-67
2022/10/07 05:41:40;;;;;;;15.23;4.10;;;9.30;99.90;;;;;;5049676;28;20063;-67
2022/10/07 05:44:05;;;;;;;17.40;4.13;;;9.30;99.90;;;;;;5062865;28;20135;-67
2022/10/07 05:46:31;;;;;;;19.75;5.18;;;9.70;99.90;;;;;;5045023;28;20127;-67
2022/10/07 05:48:57;;;;;;;17.55;4.40;;;9.30;99.90;;;;;;5056068;28;20045;-66
2022/10/07 05:51:24;;;;;;;24.17;5.35;;;9.30;99.90;;;;;;5058362;28;20041;-67
2022/10/07 05:53:56;;;;;;;21.77;4.43;;;9.30;99.90;;;;;;5059816;28;20140;-67
2022/10/07 05:56:22;;;;;;;18.08;4.55;;;9.30;99.90;;;;;;5063177;28;20063;-67
2022/10/07 05:58:51;;;;;;;23.25;5.65;;;9.30;99.90;;;;;;5066747;28;20044;-67
2022/10/07 06:01:22;;;;;;;20.38;5.00;;;9.50;99.90;;;;;;5066342;28;20039;-67
2022/10/07 06:03:53;;;;;;;20.20;4.97;;;9.30;99.90;;;;;;5060139;28;20052;-67
2022/10/07 06:06:20;;;;;;;19.30;6.32;;;9.30;99.90;;;;;;5070151;28;20052;-67
2022/10/07 06:08:46;;;;;;;21.67;5.13;;;9.30;99.90;;;;;;5072305;28;20055;-67
2022/10/07 06:13:59;;;;;;;27.45;5.05;;;9.30;99.90;;;;;;5047727;28;20045;-66
2022/10/07 06:16:26;;;;;;;20.52;4.60;;;9.40;99.90;;;;;;5049805;28;20097;-67
2022/10/07 06:18:53;;;;;;;25.27;4.95;;;9.40;99.90;;;;;;5065267;28;20558;-67
2022/10/07 06:21:22;;;;;;;18.30;5.07;;;9.30;99.90;;;;;;5053351;28;20115;-67
2022/10/07 06:23:52;;;;;;;23.65;5.03;;;9.70;99.90;;;;;;5055421;28;20505;-67
2022/10/07 06:26:18;;;;;;;20.05;4.40;;;9.40;99.90;;;;;;5057983;28;20124;-67
2022/10/07 06:28:44;;;;;;;14.13;4.40;;;9.40;99.90;;;;;;5059348;28;21890;-68
2022/10/07 06:31:13;;;;;;;22.67;4.82;;;9.80;99.90;;;;;;5049423;28;20055;-68
2022/10/07 06:33:39;;;;;;;21.55;4.53;;;9.40;99.90;;;;;;5029510;28;20057;-68
2022/10/07 06:36:08;;;;;;;24.02;6.70;;;9.50;99.90;;;;;;5060033;28;20056;-68
2022/10/07 06:38:34;;;;;;;25.42;4.97;;;9.50;99.90;;;;;;5054917;28;20124;-69
2022/10/07 06:41:01;;;;;;;24.83;5.97;;;9.60;99.90;;;;;;5057852;28;20124;-68
2022/10/07 06:43:31;;;;;;;20.15;4.35;;;9.60;99.90;;;;;;5052837;28;20036;-68
2022/10/07 06:46:03;;;;;;;17.77;4.97;;;9.60;99.90;;;;;;5056887;28;20754;-67
2022/10/07 06:48:31;;;;;;;20.35;5.05;;;9.90;99.90;;;;;;5045147;28;20054;-68
2022/10/07 06:50:58;;;;;;;20.52;5.10;;;10.10;99.90;;;;;;5052447;28;20084;-67
2022/10/07 06:53:25;;;;;;;20.88;4.78;;;9.70;99.90;;;;;;5048144;28;20071;-67
2022/10/07 06:55:53;;;;;;;20.10;5.45;;;9.90;99.90;;;;;;5048477;28;20591;-68
2022/10/07 06:58:25;;;;;;;20.20;5.72;;;9.80;99.90;;;;;;5046943;28;20049;-68
2022/10/07 07:00:55;;;;;;;19.65;5.40;;;9.90;99.90;;;;;;5049022;28;20052;-68
2022/10/07 07:03:22;;;;;;;21.20;4.95;;;10.00;99.90;;;;;;5049874;28;20044;-67
2022/10/07 07:05:50;;;;;;;16.75;4.55;;;10.10;99.90;;;;;;5051957;28;20049;-68
2022/10/07 07:08:17;;;;;;;25.45;4.65;;;10.20;99.90;;;;;;5049347;28;20075;-68
2022/10/07 07:10:44;;;;;;;20.33;4.75;;;10.30;99.90;;;;;;5053529;28;20075;-68
2022/10/07 07:13:10;;;;;;;18.83;4.53;;;10.40;99.90;;;;;;5055675;28;20695;-68
2022/10/07 07:15:38;;;;;;;15.40;4.43;;;10.50;99.90;;;;;;5051033;28;20048;-68
2022/10/07 07:18:05;;;;;;;16.10;4.13;;;10.60;99.90;;;;;;5037984;28;20048;-69
2022/10/07 07:20:36;;;;;;;21.42;4.93;;;10.70;99.90;;;;;;5061929;28;20182;-67
2022/10/07 07:23:04;;;;;;;20.48;4.05;;;10.80;99.90;;;;;;5045527;28;20468;-67
2022/10/07 07:25:31;;;;;;;15.27;3.97;;;10.90;99.90;;;;;;5040166;28;20047;-67
2022/10/07 07:28:00;;;;;;;17.58;4.22;;;11.00;99.90;;;;;;5059570;28;20111;-68
2022/10/07 07:30:27;;;;;;;17.77;4.20;;;11.00;99.90;;;;;;5050602;28;20078;-67
2022/10/07 07:32:56;;;;;;;18.45;4.40;;;11.10;99.90;;;;;;5050527;28;21515;-69
2022/10/07 07:35:24;;;;;;;15.68;3.78;;;11.20;99.90;;;;;;5059123;28;20619;-67
2022/10/07 07:37:50;;;;;;;25.70;4.85;;;11.20;99.90;;;;;;5074539;28;20060;-66
2022/10/07 07:40:17;;;;;;;17.42;4.38;;;11.30;99.90;;;;;;5058395;28;20048;-67
2022/10/07 07:42:44;;;;;;;16.38;4.18;;;11.30;99.90;;;;;;5057142;28;20148;-67
2022/10/07 07:45:10;;;;;;;22.88;4.72;;;11.50;99.90;;;;;;5054211;28;20505;-67
2022/10/07 07:47:36;;;;;;;19.38;3.95;;;11.50;99.90;;;;;;5057938;28;20051;-67
2022/10/07 07:50:04;;;;;;;18.15;4.43;;;11.50;99.90;;;;;;5052788;28;20579;-67
2022/10/07 07:52:30;;;;;;;20.90;4.47;;;11.60;99.90;;;;;;5046441;28;20089;-67
2022/10/07 07:54:57;;;;;;;13.35;3.90;;;11.70;99.90;;;;;;5061403;28;20518;-67
2022/10/07 07:57:25;;;;;;;22.83;4.90;;;11.80;99.90;;;;;;5049868;28;20122;-67
2022/10/07 07:59:52;;;;;;;15.27;3.35;;;11.90;99.90;;;;;;5086331;27;20048;-67
2022/10/07 08:02:19;;;;;;;17.38;3.70;;;12.00;99.90;;;;;;5039678;28;20494;-67
2022/10/07 08:04:45;;;;;;;16.27;3.70;;;12.10;99.90;;;;;;5058209;28;20048;-68
2022/10/07 08:07:11;;;;;;;15.50;4.40;;;12.20;99.90;;;;;;5043464;28;20144;-67
2022/10/07 08:09:38;;;;;;;18.60;3.42;;;12.30;99.90;;;;;;5055433;28;20576;-68
2022/10/07 08:12:04;;;;;;;18.63;4.40;;;12.40;99.90;;;;;;5055610;28;20085;-68
2022/10/07 08:14:30;;;;;;;21.80;4.38;;;12.50;99.90;;;;;;5057044;28;20389;-68
2022/10/07 08:16:57;;;;;;;16.65;3.90;;;12.50;99.90;;;;;;5059934;28;20052;-68
2022/10/07 08:19:25;;;;;;;16.38;4.07;;;12.70;99.90;;;;;;5058621;28;20047;-68
2022/10/07 08:21:51;;;;;;;14.68;3.58;;;12.70;99.90;;;;;;5060553;28;20044;-68
2022/10/07 08:24:17;;;;;;;14.55;3.45;;;12.80;99.90;;;;;;5051180;28;20468;-68
2022/10/07 08:26:43;;;;;;;19.23;3.63;;;13.10;99.90;;;;;;5044778;28;20045;-68
2022/10/07 08:29:09;;;;;;;18.90;3.92;;;13.00;99.90;;;;;;5036386;28;20061;-68
2022/10/07 08:31:35;;;;;;;17.77;3.45;;;13.20;99.90;;;;;;5049471;28;20524;-69
2022/10/07 08:34:02;;;;;;;16.95;3.78;;;13.20;99.90;;;;;;5037515;28;20048;-68
2022/10/07 08:36:31;;;;;;;18.38;3.55;;;13.20;99.90;;;;;;5034476;28;20044;-68
2022/10/07 08:38:58;;;;;;;18.40;3.35;;;13.30;99.90;;;;;;5035053;28;20067;-67
2022/10/07 08:41:38;;;;;;;12.93;3.25;;;13.30;99.90;;;;;;5054402;28;20375;-67
2022/10/07 08:44:13;;;;;;;17.90;3.40;;;13.40;99.90;;;;;;5055826;28;20090;-68
2022/10/07 08:46:48;;;;;;;19.25;3.53;;;13.50;99.90;;;;;;5058888;28;20448;-68
2022/10/07 08:49:18;;;;;;;16.10;3.67;;;13.50;99.90;;;;;;5038548;28;20048;-68
2022/10/07 08:51:49;;;;;;;17.00;3.38;;;13.60;99.90;;;;;;5053634;28;22443;-69
2022/10/07 08:54:24;;;;;;;17.90;3.88;;;13.60;99.90;;;;;;5055935;28;20036;-66
2022/10/07 08:56:50;;;;;;;15.30;3.70;;;13.70;99.90;;;;;;5056135;28;20053;-66
2022/10/07 08:59:20;;;;;;;15.98;4.88;;;13.80;99.90;;;;;;5052246;28;20048;-66
2022/10/07 09:02:08;;;;;;;14.18;2.78;;;13.90;99.90;;;;;;5053605;28;20642;-66
2022/10/07 09:04:53;;;;;;;20.80;3.58;;;13.90;99.90;;;;;;5056644;28;20041;-67
2022/10/07 09:07:22;;;;;;;20.75;4.25;;;14.00;99.90;;;;;;5048281;28;21658;-67
2022/10/07 09:10:00;;;;;;;18.65;3.30;;;14.10;99.90;;;;;;5056833;28;20766;-67
2022/10/07 09:12:51;;;;;;;15.65;4.10;;;14.10;99.90;;;;;;5057002;28;20080;-68
2022/10/07 09:15:37;;;;;;;19.67;3.73;;;14.10;99.90;;;;;;5059183;28;20082;-67
2022/10/07 09:18:32;;;;;;;18.80;3.55;;;14.20;99.90;;;;;;5050415;28;20404;-68
2022/10/07 09:21:01;;;;;;;22.77;3.67;;;14.20;99.90;;;;;;5051776;28;20033;-68
2022/10/07 09:23:32;;;;;;;18.65;3.80;;;14.20;99.90;;;;;;5043968;28;20124;-67
2022/10/07 09:25:59;;;;;;;15.85;3.67;;;14.30;99.90;;;;;;5056098;28;20060;-68
2022/10/07 09:28:31;;;;;;;19.02;3.72;;;14.30;99.90;;;;;;5053924;28;20044;-68
2022/10/07 09:31:01;;;;;;;14.10;4.15;;;14.30;99.90;;;;;;5038813;28;20208;-68
2022/10/07 09:33:28;;;;;;;20.80;3.87;;;14.50;99.90;;;;;;5055915;28;20317;-68
2022/10/07 09:36:20;;;;;;;17.52;4.45;;;14.40;99.90;;;;;;5053637;28;20048;-68
2022/10/07 09:38:49;;;;;;;21.77;3.47;;;14.50;99.90;;;;;;5064439;28;20082;-68
2022/10/07 09:41:19;;;;;;;20.98;3.78;;;14.50;99.90;;;;;;5067817;28;20055;-68
2022/10/07 09:44:06;;;;;;;17.80;4.10;;;14.60;99.90;;;;;;5067948;28;20052;-68
2022/10/07 09:46:52;;;;;;;16.23;3.33;;;14.60;99.90;;;;;;5062148;28;20098;-68
2022/10/07 09:49:27;;;;;;;15.27;3.60;;;14.70;99.90;;;;;;5069079;28;20114;-68
2022/10/07 09:52:13;;;;;;;22.55;4.13;;;14.70;99.90;;;;;;5069084;28;20033;-68
2022/10/07 09:54:39;;;;;;;14.60;3.35;;;14.80;99.90;;;;;;5069896;28;20416;-67
2022/10/07 09:57:22;;;;;;;17.00;3.53;;;14.80;99.90;;;;;;5070285;28;20044;-68
2022/10/07 09:59:48;;;;;;;15.95;3.75;;;14.90;99.90;;;;;;5068487;28;20048;-68
2022/10/07 10:02:14;;;;;;;18.63;3.83;;;15.00;99.90;;;;;;5068173;28;20041;-68
2022/10/07 10:04:49;;;;;;;19.20;3.28;;;15.00;99.90;;;;;;5067342;28;20052;-68
2022/10/07 10:07:25;;;;;;;16.52;3.03;;;15.10;99.90;;;;;;5052013;28;20400;-69
2022/10/07 10:09:54;;;;;;;12.50;2.95;;;15.20;99.90;;;;;;5043466;28;20053;-68
2022/10/07 10:12:22;;;;;;;18.27;3.80;;;15.20;99.90;;;;;;5040017;28;20063;-68
2022/10/07 10:15:12;;;;;;;15.70;3.35;;;15.20;99.90;;;;;;5065101;28;20505;-69
2022/10/07 10:17:39;;;;;;;17.77;3.75;;;15.30;99.90;;;;;;5055531;28;20072;-70
2022/10/07 10:20:23;;;;;;;15.32;2.97;;;15.40;99.90;;;;;;5055711;28;20048;-68
2022/10/07 10:22:50;;;;;;;13.68;2.80;;;15.40;99.90;;;;;;5053042;28;20052;-68
2022/10/07 10:28:17;;;;;;;19.15;2.90;;;15.50;99.90;;;;;;5055456;28;20049;-69
2022/10/07 10:30:56;;;;;;;17.60;3.00;;;15.50;99.90;;;;;;5045247;28;20759;-68
2022/10/07 10:33:36;;;;;;;16.30;3.35;;;15.50;99.90;;;;;;5058352;28;20161;-69
2022/10/07 10:36:15;;;;;;;17.33;3.05;;;15.60;99.90;;;;;;5043212;28;20546;-68
2022/10/07 10:39:01;;;;;;;17.05;3.28;;;15.70;99.90;;;;;;5087030;27;20048;-69
2022/10/07 10:41:49;;;;;;;20.38;3.03;;;15.70;99.90;;;;;;5047976;28;20203;-68
2022/10/07 10:44:23;;;;;;;18.10;3.13;;;15.80;99.90;;;;;;5083412;28;20036;-68
2022/10/07 10:47:36;;;;;;;15.80;3.13;;;15.90;99.90;;;;;;5063184;28;20312;-69
2022/10/07 10:50:26;;;;;;;20.08;3.35;;;15.90;99.90;;;;;;5066681;28;20043;-68
2022/10/07 10:53:32;;;;;;;20.02;3.15;;;15.90;99.90;;;;;;5060723;28;20044;-69
2022/10/07 10:56:14;;;;;;;16.27;3.13;;;16.00;99.90;;;;;;5062476;28;20048;-69
2022/10/07 10:59:08;;;;;;;19.38;3.13;;;15.90;99.90;;;;;;5096232;28;20053;-68
2022/10/07 11:01:42;;;;;;;15.07;2.83;;;16.00;99.90;;;;;;5063166;28;20123;-68
2022/10/07 11:04:13;;;;;;;20.63;3.00;;;16.00;99.90;;;;;;5067736;28;20448;-68
2022/10/07 11:06:44;;;;;;;13.93;2.80;;;16.10;99.90;;;;;;5063856;28;20311;-69
2022/10/07 11:09:28;;;;;;;19.02;3.95;;;16.10;99.90;;;;;;5060863;28;20426;-68
2022/10/07 11:11:56;;;;;;;14.27;2.15;;;16.10;99.90;;;;;;5087166;28;20501;-69
2022/10/07 11:14:24;;;;;;;12.13;2.50;;;16.20;99.90;;;;;;5056355;28;20088;-69
2022/10/07 11:16:57;;;;;;;14.98;2.42;;;16.20;99.90;;;;;;5054724;28;20421;-68
2022/10/07 11:19:29;;;;;;;16.65;2.72;;;16.30;99.90;;;;;;5061285;28;20048;-68
2022/10/07 11:22:00;;;;;;;11.00;2.42;;;16.40;99.90;;;;;;5052651;28;20045;-69
2022/10/07 11:24:31;;;;;;;17.45;2.90;;;16.40;99.90;;;;;;5041801;28;20488;-69
2022/10/07 11:27:45;;;;;;;12.02;1.77;;;16.50;99.90;;;;;;5058281;28;20132;-69
2022/10/07 11:30:19;;;;;;;13.05;2.45;;;16.50;99.90;;;;;;5040620;28;20061;-69
2022/10/07 11:33:04;;;;;;;15.18;2.80;;;16.60;99.90;;;;;;5053479;28;20523;-69
2022/10/07 11:35:58;;;;;;;16.52;2.80;;;16.60;99.90;;;;;;5043423;28;20125;-69
2022/10/07 11:38:32;;;;;;;15.40;3.25;;;16.70;99.90;;;;;;5052754;28;20044;-68
2022/10/07 11:41:12;;;;;;;13.60;2.35;;;16.70;99.90;;;;;;5056617;28;20127;-69
2022/10/07 11:43:46;;;;;;;14.98;3.42;;;16.80;99.90;;;;;;5054467;28;20049;-68
2022/10/07 11:46:17;;;;;;;14.20;2.30;;;16.80;99.90;;;;;;5058640;28;20037;-69
2022/10/07 11:48:47;;;;;;;15.20;2.88;;;16.80;99.90;;;;;;5063165;28;20173;-69
2022/10/07 11:51:34;;;;;;;11.82;2.60;;;16.80;99.90;;;;;;5070018;28;20040;-69
2022/10/07 11:54:01;;;;;;;14.75;3.20;;;16.80;99.90;;;;;;5059482;28;20068;-69
2022/10/07 11:56:38;;;;;;;12.77;2.60;;;16.80;99.90;;;;;;5056511;28;20049;-69
2022/10/07 11:59:05;;;;;;;16.58;2.90;;;16.80;99.90;;;;;;5061263;28;20068;-69
2022/10/07 12:01:34;;;;;;;11.63;3.25;;;16.80;99.90;;;;;;5049411;28;20037;-69
2022/10/07 12:04:23;;;;;;;17.25;3.10;;;16.80;99.90;;;;;;5060529;28;20055;-69
2022/10/07 12:07:27;;;;;;;14.93;2.58;;;16.80;99.90;;;;;;5062927;28;20067;-70
2022/10/07 12:10:05;;;;;;;12.27;2.78;;;16.80;99.90;;;;;;5095201;28;20086;-69
2022/10/07 12:12:44;;;;;;;13.10;3.13;;;16.80;99.90;;;;;;5063136;28;20052;-70
2022/10/07 12:15:37;;;;;;;17.40;2.80;;;16.70;99.90;;;;;;5043194;28;20044;-69
2022/10/07 12:18:03;;;;;;;15.35;2.58;;;16.70;99.90;;;;;;5061205;28;20619;-69
2022/10/07 12:20:50;;;;;;;18.65;2.97;;;16.70;99.90;;;;;;5067097;28;20037;-67
2022/10/07 12:23:19;;;;;;;19.20;3.13;;;16.60;99.90;;;;;;5067020;28;20044;-67
2022/10/07 12:26:19;;;;;;;15.23;2.90;;;16.60;99.90;;;;;;5065752;28;20040;-68
2022/10/07 12:28:47;;;;;;;16.65;3.15;;;16.70;99.90;;;;;;5048837;28;20402;-68
2022/10/07 12:31:19;;;;;;;13.77;2.40;;;16.70;99.90;;;;;;5056402;28;20148;-68
2022/10/07 12:33:45;;;;;;;15.80;2.53;;;16.70;99.90;;;;;;5057121;28;20037;-69
2022/10/07 12:36:24;;;;;;;11.82;2.85;;;16.70;99.90;;;;;;5064401;28;20044;-69
2022/10/07 12:38:56;;;;;;;12.05;2.45;;;16.70;99.90;;;;;;5085078;28;20517;-69
2022/10/07 12:41:24;;;;;;;12.80;2.50;;;16.70;99.90;;;;;;5043675;28;20501;-69
2022/10/07 12:44:05;;;;;;;11.18;3.05;;;16.80;99.90;;;;;;5051967;28;20067;-69
2022/10/07 12:46:48;;;;;;;10.07;2.03;;;16.70;99.90;;;;;;5055789;28;20489;-69
2022/10/07 12:49:39;;;;;;;13.35;2.20;;;16.70;99.90;;;;;;5063610;28;20563;-69
2022/10/07 12:52:43;;;;;;;17.75;2.25;;;16.70;99.90;;;;;;5069279;28;20517;-69
2022/10/07 12:55:18;;;;;;;14.68;2.38;;;16.70;99.90;;;;;;5066260;28;20156;-69
2022/10/07 12:57:51;;;;;;;13.35;2.45;;;16.70;99.90;;;;;;5039491;28;20051;-69
2022/10/07 13:00:23;;;;;;;11.65;2.80;;;16.70;99.90;;;;;;5056268;28;20049;-68
2022/10/07 13:03:20;;;;;;;13.88;2.38;;;16.70;99.90;;;;;;5047186;28;20401;-68
2022/10/07 13:05:58;;;;;;;22.23;2.72;;;16.70;99.90;;;;;;5046191;28;20393;-70
2022/10/07 13:08:42;;;;;;;11.38;2.50;;;16.70;99.90;;;;;;5065079;28;20383;-69
2022/10/07 13:11:20;;;;;;;14.15;2.22;;;16.60;99.90;;;;;;5065589;28;20040;-69
2022/10/07 13:14:25;;;;;;;14.70;2.88;;;16.60;99.90;;;;;;5041677;28;20194;-69
2022/10/07 13:17:12;;;;;;;12.48;2.38;;;16.60;99.90;;;;;;5039397;28;20131;-69
2022/10/07 13:20:00;;;;;;;12.63;2.35;;;16.70;99.90;;;;;;5059846;28;20067;-70